sensor_id;sensor_type;location;lat;lon;timestamp;P1;durP1;ratioP1;P2;durP2;ratioP2
2772;SDS011;1394;47.044;15.744;2022-09-03T00:02:21;6.10;;;4.37;;
2772;SDS011;1394;47.044;15.744;2022-09-03T00:04:52;5.30;;;4.20;;
2772;SDS011;1394;47.044;15.744;2022-09-03T00:07:24;4.23;;;3.83;;
2772;SDS011;1394;47.044;15.744;2022-09-03T00:09:54;4.13;;;3.73;;
2772;SDS011;1394;47.044;15.744;2022-09-03T00:12:24;6.30;;;4.67;;
2772;SDS011;1394;47.044;15.744;2022-09-03T00:14:54;4.43;;;4.03;;
2772;SDS011;1394;47.044;15.744;2022-09-03T00:17:26;4.10;;;3.70;;
2772;SDS011;1394;47.044;15.744;2022-09-03T00:19:56;3.70;;;3.30;;
2772;SDS011;1394;47.044;15.744;2022-09-03T00:22:25;7.20;;;4.13;;
2772;SDS011;1394;47.044;15.744;2022-09-03T00:24:54;5.80;;;4.80;;
2772;SDS011;1394;47.044;15.744;2022-09-03T00:27:25;4.70;;;3.80;;
2772;SDS011;1394;47.044;15.744;2022-09-03T00:29:54;6.27;;;4.90;;
2772;SDS011;1394;47.044;15.744;2022-09-03T00:32:26;5.27;;;4.50;;
2772;SDS011;1394;47.044;15.744;2022-09-03T00:34:55;6.93;;;5.00;;
2772;SDS011;1394;47.044;15.744;2022-09-03T00:37:23;4.43;;;4.03;;
2772;SDS011;1394;47.044;15.744;2022-09-03T00:39:54;5.80;;;3.90;;
2772;SDS011;1394;47.044;15.744;2022-09-03T00:42:34;4.13;;;3.73;;
2772;SDS011;1394;47.044;15.744;2022-09-03T00:45:09;7.00;;;3.80;;
2772;SDS011;1394;47.044;15.744;2022-09-03T00:47:47;7.30;;;4.30;;
2772;SDS011;1394;47.044;15.744;2022-09-03T00:50:17;6.10;;;4.03;;
2772;SDS011;1394;47.044;15.744;2022-09-03T00:52:51;4.50;;;4.10;;
2772;SDS011;1394;47.044;15.744;2022-09-03T00:55:26;4.53;;;4.10;;
2772;SDS011;1394;47.044;15.744;2022-09-03T00:58:04;4.30;;;3.90;;
2772;SDS011;1394;47.044;15.744;2022-09-03T01:00:36;3.90;;;3.43;;
2772;SDS011;1394;47.044;15.744;2022-09-03T01:03:08;4.93;;;4.53;;
2772;SDS011;1394;47.044;15.744;2022-09-03T01:05:41;5.13;;;4.27;;
2772;SDS011;1394;47.044;15.744;2022-09-03T01:08:12;5.20;;;4.40;;
2772;SDS011;1394;47.044;15.744;2022-09-03T01:10:45;5.30;;;4.80;;
2772;SDS011;1394;47.044;15.744;2022-09-03T01:13:19;5.53;;;4.90;;
2772;SDS011;1394;47.044;15.744;2022-09-03T01:15:50;6.30;;;5.70;;
2772;SDS011;1394;47.044;15.744;2022-09-03T01:18:22;7.73;;;5.33;;
2772;SDS011;1394;47.044;15.744;2022-09-03T01:20:54;6.77;;;6.10;;
2772;SDS011;1394;47.044;15.744;2022-09-03T01:26:30;5.00;;;4.50;;
2772;SDS011;1394;47.044;15.744;2022-09-03T01:29:03;5.20;;;4.70;;
2772;SDS011;1394;47.044;15.744;2022-09-03T01:31:37;5.23;;;4.50;;
2772;SDS011;1394;47.044;15.744;2022-09-03T01:34:09;5.33;;;4.83;;
2772;SDS011;1394;47.044;15.744;2022-09-03T01:36:40;5.53;;;5.00;;
2772;SDS011;1394;47.044;15.744;2022-09-03T01:39:11;5.47;;;5.00;;
2772;SDS011;1394;47.044;15.744;2022-09-03T01:41:42;4.80;;;4.40;;
2772;SDS011;1394;47.044;15.744;2022-09-03T01:44:35;3.97;;;3.57;;
2772;SDS011;1394;47.044;15.744;2022-09-03T01:47:07;5.67;;;5.17;;
2772;SDS011;1394;47.044;15.744;2022-09-03T01:49:40;7.20;;;4.07;;
2772;SDS011;1394;47.044;15.744;2022-09-03T01:52:10;4.93;;;3.83;;
2772;SDS011;1394;47.044;15.744;2022-09-03T01:54:44;6.03;;;5.00;;
2772;SDS011;1394;47.044;15.744;2022-09-03T01:57:21;5.70;;;4.00;;
2772;SDS011;1394;47.044;15.744;2022-09-03T01:59:55;6.57;;;4.70;;
2772;SDS011;1394;47.044;15.744;2022-09-03T02:02:25;4.67;;;4.20;;
2772;SDS011;1394;47.044;15.744;2022-09-03T02:04:55;4.90;;;4.00;;
2772;SDS011;1394;47.044;15.744;2022-09-03T02:07:25;5.47;;;3.70;;
2772;SDS011;1394;47.044;15.744;2022-09-03T02:09:53;3.97;;;3.60;;
2772;SDS011;1394;47.044;15.744;2022-09-03T02:12:20;4.90;;;4.50;;
2772;SDS011;1394;47.044;15.744;2022-09-03T02:14:48;4.77;;;4.27;;
2772;SDS011;1394;47.044;15.744;2022-09-03T02:17:17;9.13;;;4.63;;
2772;SDS011;1394;47.044;15.744;2022-09-03T02:19:44;6.60;;;4.00;;
2772;SDS011;1394;47.044;15.744;2022-09-03T02:22:11;4.60;;;3.70;;
2772;SDS011;1394;47.044;15.744;2022-09-03T02:24:42;6.93;;;4.20;;
2772;SDS011;1394;47.044;15.744;2022-09-03T02:27:09;4.20;;;3.80;;
2772;SDS011;1394;47.044;15.744;2022-09-03T02:29:37;4.23;;;3.83;;
2772;SDS011;1394;47.044;15.744;2022-09-03T02:32:04;9.43;;;4.10;;
2772;SDS011;1394;47.044;15.744;2022-09-03T02:34:33;4.07;;;3.77;;
2772;SDS011;1394;47.044;15.744;2022-09-03T02:37:00;5.53;;;4.80;;
2772;SDS011;1394;47.044;15.744;2022-09-03T02:39:37;4.37;;;3.97;;
2772;SDS011;1394;47.044;15.744;2022-09-03T02:42:05;4.23;;;3.93;;
2772;SDS011;1394;47.044;15.744;2022-09-03T02:44:34;4.97;;;4.43;;
2772;SDS011;1394;47.044;15.744;2022-09-03T02:47:04;6.53;;;4.10;;
2772;SDS011;1394;47.044;15.744;2022-09-03T02:49:33;5.03;;;4.53;;
2772;SDS011;1394;47.044;15.744;2022-09-03T02:52:01;5.20;;;4.70;;
2772;SDS011;1394;47.044;15.744;2022-09-03T02:54:30;4.27;;;3.87;;
2772;SDS011;1394;47.044;15.744;2022-09-03T02:57:00;5.20;;;4.80;;
2772;SDS011;1394;47.044;15.744;2022-09-03T02:59:27;4.83;;;4.33;;
2772;SDS011;1394;47.044;15.744;2022-09-03T03:01:55;7.60;;;4.73;;
2772;SDS011;1394;47.044;15.744;2022-09-03T03:04:23;5.30;;;4.80;;
2772;SDS011;1394;47.044;15.744;2022-09-03T03:06:51;5.80;;;5.30;;
2772;SDS011;1394;47.044;15.744;2022-09-03T03:09:19;5.37;;;4.97;;
2772;SDS011;1394;47.044;15.744;2022-09-03T03:11:46;4.40;;;3.80;;
2772;SDS011;1394;47.044;15.744;2022-09-03T03:14:14;4.97;;;4.57;;
2772;SDS011;1394;47.044;15.744;2022-09-03T03:16:41;5.50;;;5.00;;
2772;SDS011;1394;47.044;15.744;2022-09-03T03:19:09;5.10;;;4.70;;
2772;SDS011;1394;47.044;15.744;2022-09-03T03:21:36;6.77;;;5.10;;
2772;SDS011;1394;47.044;15.744;2022-09-03T03:24:05;5.87;;;5.37;;
2772;SDS011;1394;47.044;15.744;2022-09-03T03:26:33;6.00;;;5.20;;
2772;SDS011;1394;47.044;15.744;2022-09-03T03:29:03;6.00;;;5.40;;
2772;SDS011;1394;47.044;15.744;2022-09-03T03:31:31;5.30;;;4.23;;
2772;SDS011;1394;47.044;15.744;2022-09-03T03:33:59;5.27;;;4.87;;
2772;SDS011;1394;47.044;15.744;2022-09-03T03:36:27;8.43;;;4.63;;
2772;SDS011;1394;47.044;15.744;2022-09-03T03:38:57;4.70;;;4.27;;
2772;SDS011;1394;47.044;15.744;2022-09-03T03:41:27;5.20;;;4.70;;
2772;SDS011;1394;47.044;15.744;2022-09-03T03:43:56;5.07;;;4.40;;
2772;SDS011;1394;47.044;15.744;2022-09-03T03:46:23;5.10;;;4.60;;
2772;SDS011;1394;47.044;15.744;2022-09-03T03:48:51;4.30;;;3.90;;
2772;SDS011;1394;47.044;15.744;2022-09-03T03:51:19;4.50;;;4.10;;
2772;SDS011;1394;47.044;15.744;2022-09-03T03:53:46;4.70;;;4.30;;
2772;SDS011;1394;47.044;15.744;2022-09-03T03:56:14;5.47;;;4.97;;
2772;SDS011;1394;47.044;15.744;2022-09-03T03:58:43;4.97;;;4.47;;
2772;SDS011;1394;47.044;15.744;2022-09-03T04:01:24;7.80;;;4.70;;
2772;SDS011;1394;47.044;15.744;2022-09-03T04:03:53;4.50;;;4.10;;
2772;SDS011;1394;47.044;15.744;2022-09-03T04:06:21;4.70;;;4.20;;
2772;SDS011;1394;47.044;15.744;2022-09-03T04:08:48;5.70;;;3.47;;
2772;SDS011;1394;47.044;15.744;2022-09-03T04:11:16;4.20;;;3.80;;
2772;SDS011;1394;47.044;15.744;2022-09-03T04:13:46;5.30;;;3.80;;
2772;SDS011;1394;47.044;15.744;2022-09-03T04:16:15;6.10;;;3.83;;
2772;SDS011;1394;47.044;15.744;2022-09-03T04:18:43;4.77;;;3.70;;
2772;SDS011;1394;47.044;15.744;2022-09-03T04:21:11;4.20;;;3.80;;
2772;SDS011;1394;47.044;15.744;2022-09-03T04:23:39;4.70;;;4.30;;
2772;SDS011;1394;47.044;15.744;2022-09-03T04:26:08;5.90;;;4.90;;
2772;SDS011;1394;47.044;15.744;2022-09-03T04:28:35;4.17;;;3.77;;
2772;SDS011;1394;47.044;15.744;2022-09-03T04:31:04;6.47;;;3.73;;
2772;SDS011;1394;47.044;15.744;2022-09-03T04:33:32;4.00;;;3.70;;
2772;SDS011;1394;47.044;15.744;2022-09-03T04:36:01;4.13;;;3.83;;
2772;SDS011;1394;47.044;15.744;2022-09-03T04:38:29;5.63;;;4.30;;
2772;SDS011;1394;47.044;15.744;2022-09-03T04:40:56;4.37;;;3.97;;
2772;SDS011;1394;47.044;15.744;2022-09-03T04:43:25;5.13;;;4.60;;
2772;SDS011;1394;47.044;15.744;2022-09-03T04:45:55;5.47;;;4.83;;
2772;SDS011;1394;47.044;15.744;2022-09-03T04:48:24;5.73;;;4.63;;
2772;SDS011;1394;47.044;15.744;2022-09-03T04:50:51;4.17;;;3.87;;
2772;SDS011;1394;47.044;15.744;2022-09-03T04:53:20;5.40;;;4.90;;
2772;SDS011;1394;47.044;15.744;2022-09-03T04:55:47;5.03;;;4.53;;
2772;SDS011;1394;47.044;15.744;2022-09-03T04:58:15;7.47;;;4.93;;
2772;SDS011;1394;47.044;15.744;2022-09-03T05:00:42;5.50;;;5.00;;
2772;SDS011;1394;47.044;15.744;2022-09-03T05:03:10;5.20;;;4.70;;
2772;SDS011;1394;47.044;15.744;2022-09-03T05:05:41;5.37;;;4.87;;
2772;SDS011;1394;47.044;15.744;2022-09-03T05:08:10;5.67;;;5.13;;
2772;SDS011;1394;47.044;15.744;2022-09-03T05:10:37;5.93;;;4.40;;
2772;SDS011;1394;47.044;15.744;2022-09-03T05:13:04;6.40;;;4.80;;
2772;SDS011;1394;47.044;15.744;2022-09-03T05:15:33;4.80;;;4.40;;
2772;SDS011;1394;47.044;15.744;2022-09-03T05:18:00;5.23;;;4.80;;
2772;SDS011;1394;47.044;15.744;2022-09-03T05:20:28;5.17;;;4.60;;
2772;SDS011;1394;47.044;15.744;2022-09-03T05:23:00;6.53;;;5.13;;
2772;SDS011;1394;47.044;15.744;2022-09-03T05:25:28;6.23;;;5.07;;
2772;SDS011;1394;47.044;15.744;2022-09-03T05:27:57;5.07;;;4.57;;
2772;SDS011;1394;47.044;15.744;2022-09-03T05:30:25;4.90;;;4.50;;
2772;SDS011;1394;47.044;15.744;2022-09-03T05:32:53;5.90;;;5.37;;
2772;SDS011;1394;47.044;15.744;2022-09-03T05:35:20;5.13;;;4.63;;
2772;SDS011;1394;47.044;15.744;2022-09-03T05:37:48;5.40;;;4.50;;
2772;SDS011;1394;47.044;15.744;2022-09-03T05:40:17;5.40;;;4.80;;
2772;SDS011;1394;47.044;15.744;2022-09-03T05:42:45;5.50;;;4.97;;
2772;SDS011;1394;47.044;15.744;2022-09-03T05:45:12;5.63;;;5.10;;
2772;SDS011;1394;47.044;15.744;2022-09-03T05:47:39;6.40;;;5.37;;
2772;SDS011;1394;47.044;15.744;2022-09-03T05:50:07;5.67;;;4.90;;
2772;SDS011;1394;47.044;15.744;2022-09-03T05:52:35;5.10;;;4.60;;
2772;SDS011;1394;47.044;15.744;2022-09-03T05:55:03;5.83;;;5.33;;
2772;SDS011;1394;47.044;15.744;2022-09-03T05:57:32;6.00;;;5.40;;
2772;SDS011;1394;47.044;15.744;2022-09-03T05:59:59;6.53;;;5.83;;
2772;SDS011;1394;47.044;15.744;2022-09-03T06:02:27;5.30;;;4.80;;
2772;SDS011;1394;47.044;15.744;2022-09-03T06:04:54;6.50;;;5.30;;
2772;SDS011;1394;47.044;15.744;2022-09-03T06:07:23;7.30;;;5.10;;
2772;SDS011;1394;47.044;15.744;2022-09-03T06:09:51;7.30;;;5.83;;
2772;SDS011;1394;47.044;15.744;2022-09-03T06:12:18;7.03;;;5.40;;
2772;SDS011;1394;47.044;15.744;2022-09-03T06:14:47;6.50;;;5.47;;
2772;SDS011;1394;47.044;15.744;2022-09-03T06:17:14;6.73;;;5.10;;
2772;SDS011;1394;47.044;15.744;2022-09-03T06:19:42;5.63;;;5.13;;
2772;SDS011;1394;47.044;15.744;2022-09-03T06:22:09;6.97;;;5.57;;
2772;SDS011;1394;47.044;15.744;2022-09-03T06:24:36;7.23;;;5.67;;
2772;SDS011;1394;47.044;15.744;2022-09-03T06:27:03;7.27;;;5.30;;
2772;SDS011;1394;47.044;15.744;2022-09-03T06:29:32;9.00;;;5.60;;
2772;SDS011;1394;47.044;15.744;2022-09-03T06:32:02;6.83;;;5.13;;
2772;SDS011;1394;47.044;15.744;2022-09-03T06:34:29;5.37;;;4.97;;
2772;SDS011;1394;47.044;15.744;2022-09-03T06:36:57;8.23;;;5.80;;
2772;SDS011;1394;47.044;15.744;2022-09-03T06:39:24;5.70;;;5.20;;
2772;SDS011;1394;47.044;15.744;2022-09-03T06:41:51;6.90;;;5.67;;
2772;SDS011;1394;47.044;15.744;2022-09-03T06:44:19;6.10;;;5.50;;
2772;SDS011;1394;47.044;15.744;2022-09-03T06:46:46;5.60;;;5.00;;
2772;SDS011;1394;47.044;15.744;2022-09-03T06:49:15;4.80;;;4.40;;
2772;SDS011;1394;47.044;15.744;2022-09-03T06:51:43;5.37;;;4.87;;
2772;SDS011;1394;47.044;15.744;2022-09-03T06:54:13;5.30;;;4.80;;
2772;SDS011;1394;47.044;15.744;2022-09-03T06:56:41;6.50;;;5.90;;
2772;SDS011;1394;47.044;15.744;2022-09-03T06:59:09;5.73;;;4.80;;
2772;SDS011;1394;47.044;15.744;2022-09-03T07:01:36;7.50;;;6.03;;
2772;SDS011;1394;47.044;15.744;2022-09-03T07:04:05;6.40;;;5.20;;
2772;SDS011;1394;47.044;15.744;2022-09-03T07:06:38;6.77;;;5.60;;
2772;SDS011;1394;47.044;15.744;2022-09-03T07:09:06;5.73;;;5.23;;
2772;SDS011;1394;47.044;15.744;2022-09-03T07:11:35;6.07;;;5.43;;
2772;SDS011;1394;47.044;15.744;2022-09-03T07:14:04;5.40;;;4.90;;
2772;SDS011;1394;47.044;15.744;2022-09-03T07:16:32;6.47;;;5.40;;
2772;SDS011;1394;47.044;15.744;2022-09-03T07:19:00;6.03;;;5.43;;
2772;SDS011;1394;47.044;15.744;2022-09-03T07:21:29;6.37;;;5.83;;
2772;SDS011;1394;47.044;15.744;2022-09-03T07:23:59;5.83;;;5.30;;
2772;SDS011;1394;47.044;15.744;2022-09-03T07:26:27;6.80;;;5.50;;
2772;SDS011;1394;47.044;15.744;2022-09-03T07:28:56;5.40;;;4.90;;
2772;SDS011;1394;47.044;15.744;2022-09-03T07:31:35;6.10;;;4.70;;
2772;SDS011;1394;47.044;15.744;2022-09-03T07:34:03;6.10;;;5.50;;
2772;SDS011;1394;47.044;15.744;2022-09-03T07:36:34;8.40;;;6.07;;
2772;SDS011;1394;47.044;15.744;2022-09-03T07:39:04;5.80;;;5.20;;
2772;SDS011;1394;47.044;15.744;2022-09-03T07:41:31;7.17;;;5.90;;
2772;SDS011;1394;47.044;15.744;2022-09-03T07:43:59;5.60;;;5.10;;
2772;SDS011;1394;47.044;15.744;2022-09-03T07:46:29;7.30;;;5.50;;
2772;SDS011;1394;47.044;15.744;2022-09-03T07:48:58;8.53;;;5.50;;
2772;SDS011;1394;47.044;15.744;2022-09-03T07:51:30;7.93;;;5.80;;
2772;SDS011;1394;47.044;15.744;2022-09-03T07:53:58;7.30;;;6.60;;
2772;SDS011;1394;47.044;15.744;2022-09-03T07:56:27;8.33;;;5.60;;
2772;SDS011;1394;47.044;15.744;2022-09-03T07:58:56;6.20;;;5.30;;
2772;SDS011;1394;47.044;15.744;2022-09-03T08:01:24;6.03;;;5.30;;
2772;SDS011;1394;47.044;15.744;2022-09-03T08:03:52;6.73;;;6.10;;
2772;SDS011;1394;47.044;15.744;2022-09-03T08:06:20;6.20;;;5.50;;
2772;SDS011;1394;47.044;15.744;2022-09-03T08:08:52;5.60;;;5.10;;
2772;SDS011;1394;47.044;15.744;2022-09-03T08:11:22;6.47;;;5.87;;
2772;SDS011;1394;47.044;15.744;2022-09-03T08:13:54;6.83;;;6.13;;
2772;SDS011;1394;47.044;15.744;2022-09-03T08:16:25;6.67;;;6.07;;
2772;SDS011;1394;47.044;15.744;2022-09-03T08:18:56;6.90;;;6.20;;
2772;SDS011;1394;47.044;15.744;2022-09-03T08:21:24;6.63;;;6.00;;
2772;SDS011;1394;47.044;15.744;2022-09-03T08:23:52;9.70;;;5.40;;
2772;SDS011;1394;47.044;15.744;2022-09-03T08:26:26;6.07;;;5.50;;
2772;SDS011;1394;47.044;15.744;2022-09-03T08:28:55;7.00;;;6.30;;
2772;SDS011;1394;47.044;15.744;2022-09-03T08:31:22;6.33;;;5.73;;
2772;SDS011;1394;47.044;15.744;2022-09-03T08:33:52;6.57;;;5.70;;
2772;SDS011;1394;47.044;15.744;2022-09-03T08:36:20;8.00;;;5.60;;
2772;SDS011;1394;47.044;15.744;2022-09-03T08:38:51;7.03;;;6.27;;
2772;SDS011;1394;47.044;15.744;2022-09-03T08:41:21;7.27;;;5.50;;
2772;SDS011;1394;47.044;15.744;2022-09-03T08:43:55;7.17;;;5.60;;
2772;SDS011;1394;47.044;15.744;2022-09-03T08:46:31;6.20;;;5.53;;
2772;SDS011;1394;47.044;15.744;2022-09-03T08:49:00;6.90;;;5.57;;
2772;SDS011;1394;47.044;15.744;2022-09-03T08:51:28;6.73;;;5.20;;
2772;SDS011;1394;47.044;15.744;2022-09-03T08:53:58;6.70;;;5.83;;
2772;SDS011;1394;47.044;15.744;2022-09-03T08:56:26;8.87;;;6.00;;
2772;SDS011;1394;47.044;15.744;2022-09-03T08:58:57;6.20;;;5.23;;
2772;SDS011;1394;47.044;15.744;2022-09-03T09:01:29;6.17;;;5.50;;
2772;SDS011;1394;47.044;15.744;2022-09-03T09:04:03;8.03;;;5.90;;
2772;SDS011;1394;47.044;15.744;2022-09-03T09:06:32;6.73;;;4.97;;
2772;SDS011;1394;47.044;15.744;2022-09-03T09:09:06;6.70;;;5.33;;
2772;SDS011;1394;47.044;15.744;2022-09-03T09:11:40;5.73;;;5.23;;
2772;SDS011;1394;47.044;15.744;2022-09-03T09:14:11;7.80;;;4.87;;
2772;SDS011;1394;47.044;15.744;2022-09-03T09:16:43;6.23;;;5.40;;
2772;SDS011;1394;47.044;15.744;2022-09-03T09:19:20;5.83;;;5.20;;
2772;SDS011;1394;47.044;15.744;2022-09-03T09:21:54;5.57;;;5.03;;
2772;SDS011;1394;47.044;15.744;2022-09-03T09:24:23;6.10;;;5.10;;
2772;SDS011;1394;47.044;15.744;2022-09-03T09:26:53;5.27;;;4.77;;
2772;SDS011;1394;47.044;15.744;2022-09-03T09:29:22;5.03;;;4.53;;
2772;SDS011;1394;47.044;15.744;2022-09-03T09:31:52;4.50;;;3.80;;
2772;SDS011;1394;47.044;15.744;2022-09-03T09:34:20;4.47;;;4.00;;
2772;SDS011;1394;47.044;15.744;2022-09-03T09:36:48;6.00;;;4.70;;
2772;SDS011;1394;47.044;15.744;2022-09-03T09:39:16;4.80;;;4.40;;
2772;SDS011;1394;47.044;15.744;2022-09-03T09:41:58;4.73;;;4.23;;
2772;SDS011;1394;47.044;15.744;2022-09-03T09:44:28;4.90;;;4.37;;
2772;SDS011;1394;47.044;15.744;2022-09-03T09:47:02;5.00;;;4.50;;
2772;SDS011;1394;47.044;15.744;2022-09-03T09:49:32;7.30;;;4.10;;
2772;SDS011;1394;47.044;15.744;2022-09-03T09:52:07;4.93;;;4.43;;
2772;SDS011;1394;47.044;15.744;2022-09-03T09:54:36;5.97;;;4.50;;
2772;SDS011;1394;47.044;15.744;2022-09-03T09:57:05;5.73;;;5.13;;
2772;SDS011;1394;47.044;15.744;2022-09-03T09:59:34;5.40;;;4.80;;
2772;SDS011;1394;47.044;15.744;2022-09-03T10:02:07;6.03;;;4.30;;
2772;SDS011;1394;47.044;15.744;2022-09-03T10:04:35;4.73;;;4.33;;
2772;SDS011;1394;47.044;15.744;2022-09-03T10:07:03;4.57;;;4.07;;
2772;SDS011;1394;47.044;15.744;2022-09-03T10:09:32;5.27;;;4.40;;
2772;SDS011;1394;47.044;15.744;2022-09-03T10:12:06;4.70;;;4.17;;
2772;SDS011;1394;47.044;15.744;2022-09-03T10:14:41;6.57;;;4.30;;
2772;SDS011;1394;47.044;15.744;2022-09-03T10:17:15;5.27;;;4.63;;
2772;SDS011;1394;47.044;15.744;2022-09-03T10:19:47;5.60;;;4.27;;
2772;SDS011;1394;47.044;15.744;2022-09-03T10:22:37;4.97;;;4.57;;
2772;SDS011;1394;47.044;15.744;2022-09-03T10:25:08;4.87;;;4.37;;
2772;SDS011;1394;47.044;15.744;2022-09-03T10:27:36;4.93;;;4.23;;
2772;SDS011;1394;47.044;15.744;2022-09-03T10:30:05;4.53;;;4.13;;
2772;SDS011;1394;47.044;15.744;2022-09-03T10:32:35;4.40;;;3.97;;
2772;SDS011;1394;47.044;15.744;2022-09-03T10:35:09;6.93;;;4.40;;
2772;SDS011;1394;47.044;15.744;2022-09-03T10:37:41;5.00;;;4.43;;
2772;SDS011;1394;47.044;15.744;2022-09-03T10:40:13;4.70;;;4.13;;
2772;SDS011;1394;47.044;15.744;2022-09-03T10:42:43;4.90;;;4.03;;
2772;SDS011;1394;47.044;15.744;2022-09-03T10:45:17;5.60;;;4.40;;
2772;SDS011;1394;47.044;15.744;2022-09-03T10:47:57;4.83;;;4.00;;
2772;SDS011;1394;47.044;15.744;2022-09-03T10:50:29;4.37;;;3.97;;
2772;SDS011;1394;47.044;15.744;2022-09-03T10:53:00;5.20;;;3.90;;
2772;SDS011;1394;47.044;15.744;2022-09-03T10:55:38;5.63;;;4.27;;
2772;SDS011;1394;47.044;15.744;2022-09-03T10:58:10;6.10;;;3.53;;
2772;SDS011;1394;47.044;15.744;2022-09-03T11:00:45;9.57;;;4.40;;
2772;SDS011;1394;47.044;15.744;2022-09-03T11:06:03;5.27;;;3.87;;
2772;SDS011;1394;47.044;15.744;2022-09-03T11:08:33;4.50;;;4.10;;
2772;SDS011;1394;47.044;15.744;2022-09-03T11:11:06;6.20;;;4.20;;
2772;SDS011;1394;47.044;15.744;2022-09-03T11:13:36;6.00;;;4.13;;
2772;SDS011;1394;47.044;15.744;2022-09-03T11:16:09;3.93;;;3.53;;
2772;SDS011;1394;47.044;15.744;2022-09-03T11:18:40;4.70;;;3.90;;
2772;SDS011;1394;47.044;15.744;2022-09-03T11:21:09;4.77;;;3.80;;
2772;SDS011;1394;47.044;15.744;2022-09-03T11:23:39;5.27;;;4.10;;
2772;SDS011;1394;47.044;15.744;2022-09-03T11:26:07;5.07;;;3.90;;
2772;SDS011;1394;47.044;15.744;2022-09-03T11:28:37;4.70;;;3.77;;
2772;SDS011;1394;47.044;15.744;2022-09-03T11:31:23;5.70;;;3.60;;
2772;SDS011;1394;47.044;15.744;2022-09-03T11:33:53;4.10;;;3.50;;
2772;SDS011;1394;47.044;15.744;2022-09-03T11:36:27;4.40;;;4.00;;
2772;SDS011;1394;47.044;15.744;2022-09-03T11:38:55;4.83;;;3.60;;
2772;SDS011;1394;47.044;15.744;2022-09-03T11:41:24;5.20;;;3.50;;
2772;SDS011;1394;47.044;15.744;2022-09-03T11:43:53;3.73;;;3.17;;
2772;SDS011;1394;47.044;15.744;2022-09-03T11:46:29;4.47;;;3.40;;
2772;SDS011;1394;47.044;15.744;2022-09-03T11:49:10;4.20;;;3.10;;
2772;SDS011;1394;47.044;15.744;2022-09-03T11:51:38;4.80;;;3.43;;
2772;SDS011;1394;47.044;15.744;2022-09-03T11:54:06;4.60;;;3.60;;
2772;SDS011;1394;47.044;15.744;2022-09-03T11:56:50;4.83;;;4.03;;
2772;SDS011;1394;47.044;15.744;2022-09-03T11:59:18;3.40;;;3.00;;
2772;SDS011;1394;47.044;15.744;2022-09-03T12:01:49;6.97;;;4.10;;
2772;SDS011;1394;47.044;15.744;2022-09-03T12:04:18;4.03;;;3.63;;
2772;SDS011;1394;47.044;15.744;2022-09-03T12:06:51;3.57;;;3.27;;
2772;SDS011;1394;47.044;15.744;2022-09-03T12:09:29;3.77;;;3.40;;
2772;SDS011;1394;47.044;15.744;2022-09-03T12:12:03;4.10;;;3.63;;
2772;SDS011;1394;47.044;15.744;2022-09-03T12:14:36;4.03;;;3.30;;
2772;SDS011;1394;47.044;15.744;2022-09-03T12:17:12;4.70;;;3.20;;
2772;SDS011;1394;47.044;15.744;2022-09-03T12:19:44;4.60;;;3.63;;
2772;SDS011;1394;47.044;15.744;2022-09-03T12:22:14;4.50;;;3.10;;
2772;SDS011;1394;47.044;15.744;2022-09-03T12:24:42;3.60;;;3.07;;
2772;SDS011;1394;47.044;15.744;2022-09-03T12:27:09;3.93;;;3.13;;
2772;SDS011;1394;47.044;15.744;2022-09-03T12:29:39;5.30;;;3.00;;
2772;SDS011;1394;47.044;15.744;2022-09-03T12:32:23;4.50;;;3.07;;
2772;SDS011;1394;47.044;15.744;2022-09-03T12:34:51;3.30;;;3.00;;
2772;SDS011;1394;47.044;15.744;2022-09-03T12:37:22;2.50;;;2.30;;
2772;SDS011;1394;47.044;15.744;2022-09-03T12:39:53;3.40;;;2.50;;
2772;SDS011;1394;47.044;15.744;2022-09-03T12:42:22;4.57;;;3.17;;
2772;SDS011;1394;47.044;15.744;2022-09-03T12:44:50;2.90;;;2.40;;
2772;SDS011;1394;47.044;15.744;2022-09-03T12:47:18;2.67;;;2.43;;
2772;SDS011;1394;47.044;15.744;2022-09-03T12:49:48;3.33;;;2.47;;
2772;SDS011;1394;47.044;15.744;2022-09-03T12:52:17;3.17;;;2.50;;
2772;SDS011;1394;47.044;15.744;2022-09-03T12:54:47;4.90;;;2.47;;
2772;SDS011;1394;47.044;15.744;2022-09-03T12:57:18;5.40;;;2.47;;
2772;SDS011;1394;47.044;15.744;2022-09-03T12:59:46;3.20;;;2.60;;
2772;SDS011;1394;47.044;15.744;2022-09-03T13:02:15;3.53;;;2.40;;
2772;SDS011;1394;47.044;15.744;2022-09-03T13:04:43;4.20;;;2.77;;
2772;SDS011;1394;47.044;15.744;2022-09-03T13:07:18;3.67;;;2.40;;
2772;SDS011;1394;47.044;15.744;2022-09-03T13:09:47;2.67;;;2.23;;
2772;SDS011;1394;47.044;15.744;2022-09-03T13:12:22;2.30;;;1.90;;
2772;SDS011;1394;47.044;15.744;2022-09-03T13:14:49;3.57;;;2.77;;
2772;SDS011;1394;47.044;15.744;2022-09-03T13:17:23;3.67;;;2.30;;
2772;SDS011;1394;47.044;15.744;2022-09-03T13:19:57;3.37;;;2.30;;
2772;SDS011;1394;47.044;15.744;2022-09-03T13:22:34;3.10;;;2.40;;
2772;SDS011;1394;47.044;15.744;2022-09-03T13:25:14;3.40;;;2.43;;
2772;SDS011;1394;47.044;15.744;2022-09-03T13:27:43;4.80;;;2.50;;
2772;SDS011;1394;47.044;15.744;2022-09-03T13:30:13;2.90;;;2.20;;
2772;SDS011;1394;47.044;15.744;2022-09-03T13:32:49;4.10;;;2.40;;
2772;SDS011;1394;47.044;15.744;2022-09-03T13:35:23;3.00;;;2.57;;
2772;SDS011;1394;47.044;15.744;2022-09-03T13:37:55;3.90;;;2.10;;
2772;SDS011;1394;47.044;15.744;2022-09-03T13:40:27;3.13;;;2.23;;
2772;SDS011;1394;47.044;15.744;2022-09-03T13:43:00;3.03;;;2.47;;
2772;SDS011;1394;47.044;15.744;2022-09-03T13:45:30;2.87;;;2.43;;
2772;SDS011;1394;47.044;15.744;2022-09-03T13:48:01;4.83;;;2.10;;
2772;SDS011;1394;47.044;15.744;2022-09-03T13:50:52;3.60;;;2.13;;
2772;SDS011;1394;47.044;15.744;2022-09-03T13:53:23;6.93;;;2.40;;
2772;SDS011;1394;47.044;15.744;2022-09-03T13:55:55;3.60;;;2.20;;
2772;SDS011;1394;47.044;15.744;2022-09-03T13:58:24;4.23;;;2.37;;
2772;SDS011;1394;47.044;15.744;2022-09-03T14:01:01;4.40;;;2.40;;
2772;SDS011;1394;47.044;15.744;2022-09-03T14:03:30;2.77;;;2.30;;
2772;SDS011;1394;47.044;15.744;2022-09-03T14:06:03;4.20;;;2.27;;
2772;SDS011;1394;47.044;15.744;2022-09-03T14:08:34;2.80;;;2.20;;
2772;SDS011;1394;47.044;15.744;2022-09-03T14:11:19;2.87;;;2.30;;
2772;SDS011;1394;47.044;15.744;2022-09-03T14:13:53;2.77;;;2.33;;
2772;SDS011;1394;47.044;15.744;2022-09-03T14:16:24;2.83;;;2.20;;
2772;SDS011;1394;47.044;15.744;2022-09-03T14:18:53;4.70;;;2.50;;
2772;SDS011;1394;47.044;15.744;2022-09-03T14:21:23;3.53;;;2.80;;
2772;SDS011;1394;47.044;15.744;2022-09-03T14:23:54;3.13;;;2.30;;
2772;SDS011;1394;47.044;15.744;2022-09-03T14:26:23;3.90;;;2.80;;
2772;SDS011;1394;47.044;15.744;2022-09-03T14:28:57;2.90;;;2.10;;
2772;SDS011;1394;47.044;15.744;2022-09-03T14:31:28;4.10;;;2.60;;
2772;SDS011;1394;47.044;15.744;2022-09-03T14:34:02;4.40;;;2.47;;
2772;SDS011;1394;47.044;15.744;2022-09-03T14:36:34;2.53;;;2.33;;
2772;SDS011;1394;47.044;15.744;2022-09-03T14:39:11;4.93;;;2.70;;
2772;SDS011;1394;47.044;15.744;2022-09-03T14:41:49;3.70;;;2.60;;
2772;SDS011;1394;47.044;15.744;2022-09-03T14:44:21;4.30;;;2.37;;
2772;SDS011;1394;47.044;15.744;2022-09-03T14:46:56;3.70;;;2.70;;
2772;SDS011;1394;47.044;15.744;2022-09-03T14:49:34;4.90;;;2.90;;
2772;SDS011;1394;47.044;15.744;2022-09-03T14:52:12;2.87;;;2.53;;
2772;SDS011;1394;47.044;15.744;2022-09-03T15:00:16;2.90;;;2.30;;
2772;SDS011;1394;47.044;15.744;2022-09-03T15:05:41;2.73;;;2.33;;
2772;SDS011;1394;47.044;15.744;2022-09-03T15:08:10;6.83;;;2.80;;
2772;SDS011;1394;47.044;15.744;2022-09-03T15:10:42;3.40;;;2.60;;
2772;SDS011;1394;47.044;15.744;2022-09-03T15:13:13;5.27;;;3.60;;
2772;SDS011;1394;47.044;15.744;2022-09-03T15:15:48;3.20;;;2.90;;
2772;SDS011;1394;47.044;15.744;2022-09-03T15:18:20;3.57;;;2.83;;
2772;SDS011;1394;47.044;15.744;2022-09-03T15:20:52;4.20;;;3.07;;
2772;SDS011;1394;47.044;15.744;2022-09-03T15:23:24;3.80;;;2.63;;
2772;SDS011;1394;47.044;15.744;2022-09-03T15:28:46;3.30;;;2.83;;
2772;SDS011;1394;47.044;15.744;2022-09-03T15:31:19;3.20;;;2.60;;
2772;SDS011;1394;47.044;15.744;2022-09-03T15:33:49;3.90;;;3.30;;
2772;SDS011;1394;47.044;15.744;2022-09-03T15:36:19;3.67;;;2.43;;
2772;SDS011;1394;47.044;15.744;2022-09-03T15:38:49;3.13;;;2.50;;